Welcome to our website - Welkom op onze website - Bienvenue sur notre site web - Willkommen auf unserer nWebsite
Our temperature & Humidity sensor is out of order. Spare is ordered. Temperatur- og fugtighedsmåler fejler. En ny unit er bestilt.

Vores vejrinfo findes også på:

UK Metoffice

European Weather Network

Weather Underground



Stationer ""tæt på"" METAR Rapporter

   
EKEB - Esbjerg, Denmark
Afstand fra denne vejrstation: NNV 29 km
Opdateret: 25-03-2019 15:50
Delvis overskyet  
Delvis overskyet  
   Vind fra: North 5.7 m/s
Vind fra: North 5.7 m/s
Temperatur: 9°C
Chill faktor: 6°C
Dugpunkt: 3°C
Luftfugtighed: 66%
Barometer: 1020 hPa
Skyer: Delvis overskyet
Sigtbarhed: More than 10 km
Sky detaljer: Delvis overskyet 4000 ft
EKEB 251450Z 01011KT 9999 SCT040 09/03 Q1020
EKSP - Skrydstrup(Dan-A, Denmark
Afstand fra denne vejrstation: Ø 35 km
Opdateret: 25-03-2019 15:50
Delvis overskyet  
Delvis overskyet  
   Vind fra: North 5.1 m/s<br />Gust to 5.1 m/s
Vind fra: North 5.1 m/s
Gust to 5.1 m/s
Temperatur: 9°C
Chill faktor: 6°C
Dugpunkt: 2°C
Luftfugtighed: 62%
Barometer: 1019 hPa
Skyer: Delvis overskyet
Sigtbarhed: More than 10 km
Sky detaljer: Få skyer 3000 ft,
Delvis overskyet 4500 ft
EKSP 251450Z 35010G20KT 310V040 9999 FEW030 SCT045 09/02 Q1019
EKBI - Billund Airport, Denmark
Afstand fra denne vejrstation: NNØ 56 km
Opdateret: 25-03-2019 15:50
Delvis overskyet  
Delvis overskyet  
   Vind fra: NNV 5.7 m/s
Vind fra: NNV 5.7 m/s
Temperatur: 9°C
Chill faktor: 6°C
Dugpunkt: 2°C
Luftfugtighed: 62%
Barometer: 1019 hPa
Skyer: Delvis overskyet
Sigtbarhed: More than 10 km
Sky detaljer: Få skyer 2900 ft,
Delvis overskyet 3300 ft
EKBI 251450Z AUTO 34011KT 310V020 9999 FEW029/// SCT033/// 09/02 Q1019
EKSB - Sonderborg Airpo, Denmark
Afstand fra denne vejrstation: ØSØ 76 km
Opdateret: 25-03-2019 15:50
Delvis overskyet  
Delvis overskyet  
   Vind fra: North 9.8 m/s
Vind fra: North 9.8 m/s
Temperatur: 9°C
Chill faktor: 5°C
Dugpunkt: 3°C
Luftfugtighed: 66%
Barometer: 1018 hPa
Skyer: Delvis overskyet
Sigtbarhed: More than 10 km
Sky detaljer: Delvis overskyet 3000 ft
EKSB 251450Z 35019KT 9999 SCT030 09/03 Q1018
EKVD - Vamdrup (aut/man), Denmark
Afstand fra denne vejrstation: ØNØ 41 km
Opdateret: 25-03-2019 15:50
Delvis overskyet  
Delvis overskyet  
   Vind fra: North 5.7 m/s
Vind fra: North 5.7 m/s
Temperatur: 9°C
Chill faktor: 6°C
Dugpunkt: 3°C
Luftfugtighed: 66%
Barometer: 1019 hPa
Skyer: Delvis overskyet
Sigtbarhed: More than 10 km
Sky detaljer: Delvis overskyet 2800 ft
EKVD 251450Z 01011KT 340V050 9999 SCT028 09/03 Q1019
EDXW - Westerland/Sylt, Germany
Afstand fra denne vejrstation: SSV 47 km
Opdateret: 25-03-2019 15:50
Få skyer  
Få skyer  
   Vind fra: NNV 8.7 m/s
Vind fra: NNV 8.7 m/s
Temperatur: 8°C
Chill faktor: 4°C
Dugpunkt: 5°C
Luftfugtighed: 82%
Barometer: 1020 hPa
Skyer: Få skyer
Sigtbarhed: More than 10 km
Sky detaljer: Få skyer 4100 ft
EDXW 251450Z 34017KT 9999 FEW041 08/05 Q1020

Original script by  Saratoga-weather.org Adapted for the template by  Weerstation Leuven

Der anvendes følgende:

Vejrstation
Davis VP2

Vejrprogram
Meteohub

Server
RaspberryPI 3 model B

Davis VP2

Meteohub

RaspberryPI 3 model B